Aviation Digital Data Service (ADDS)

Output produced by METARs form (0713 UTC 23 November 2014)
found at http://www.aviationweather.gov/adds/metars/
 
KAOO 230653Z AUTO 24005KT 10SM FEW065 OVC100 04/M02 A3012 RMK AO2 SLP210 T00441022
KAOO 230553Z AUTO 28007KT 10SM OVC095 04/M02 A3012 RMK AO2 SLP211 T00441022 10067 20028 55008
KAOO 230453Z AUTO 27005KT 10SM BKN110 04/M03 A3012 RMK AO2 SLP210 T00391028 400721089
KAOO 230353Z AUTO 23005KT 10SM FEW100 04/M03 A3014 RMK AO2 SLP218 T00391033
KAOO 230253Z AUTO 17004KT 10SM CLR 03/M03 A3015 RMK AO2 SLP223 T00281033 55008
KAOO 230153Z AUTO 22005KT 10SM FEW065 06/M03 A3014 RMK AO2 SLP221 T00561028
KAOO 230053Z AUTO 18004KT 10SM OVC060 05/M02 A3016 RMK AO2 SLP232 T00501017
KAOO 222353Z AUTO 22003KT 10SM BKN075 BKN100 06/M03 A3017 RMK AO2 SLP233 60000 T00611033 10072 20050 56008
KAOO 222253Z AUTO 20006KT 10SM OVC065 06/M01 A3017 RMK AO2 SLP234 T00611006
KAOO 222153Z AUTO 26004KT 10SM OVC055 06/M01 A3018 RMK AO2 RAB2059E16 SLP237 P0000 T00611011
KAOO 222108Z AUTO 24006KT 10SM -RA SCT025 OVC055 06/M01 A3020 RMK AO2 RAB2059 P0000 T00611006
KAOO 222053Z AUTO 22008KT 10SM BKN025 BKN034 OVC050 07/M03 A3020 RMK AO2 SLP243 60000 T00721028 56015
KAOO 221953Z AUTO 24007KT 10SM FEW026 BKN033 OVC055 07/M05 A3020 RMK AO2 SLP244 T00671050
KAOO 221938Z AUTO 23008KT 10SM SCT026 BKN034 OVC055 07/M06 A3020 RMK AO2 T00671056
KAOO 221906Z AUTO 22006KT 10SM BKN026 BKN038 OVC045 07/M06 A3021 RMK AO2 T00671061
KAOO 221853Z AUTO 22006KT 10SM SCT024 SCT030 OVC046 06/M06 A3021 RMK AO2 RAE20 SLP248 P0000 T00561056
KAOO 221753Z AUTO 22007KT 10SM -RA SCT029 BKN036 OVC050 04/M08 A3024 RMK AO2 RAB43 SLP259 P0000 60000 T00391078 10050 21083 58026
KAOO 221653Z AUTO 24005KT 10SM OVC041 04/M14 A3027 RMK AO2 SLP270 T00391139
KAOO 221553Z AUTO 20007KT 10SM OVC065 02/M11 A3030 RMK AO2 SLP282 T00221106
KAOO 221453Z AUTO 17004KT 10SM CLR M01/M11 A3032 RMK AO2 PRESFR SLP291 T10111111 58013
KAOO 221353Z AUTO 23003KT 10SM CLR M03/M11 A3035 RMK AO2 SLP302 T10331106
KAOO 221253Z AUTO 29003KT 10SM CLR M07/M12 A3036 RMK AO2 SLP308 T10721117
KAOO 221153Z AUTO 00000KT 10SM CLR M07/M13 A3036 RMK AO2 SLP307 T10671133 11067 21089 56013
KAOO 221053Z AUTO 24003KT 10SM CLR M07/M13 A3038 RMK AO2 SLP312 T10721128
KAOO 220953Z AUTO 00000KT 10SM CLR M08/M13 A3038 RMK AO2 SLP314 T10781128
KAOO 220853Z AUTO 00000KT 10SM CLR M09/M13 A3040 RMK AO2 SLP320 T10891128 58008
KAOO 220753Z AUTO 23003KT 10SM CLR M08/M13 A3042 RMK AO2 SLP326 T10831128
KAOO 220653Z AUTO 00000KT 10SM CLR M07/M13 A3041 RMK AO2 SLP323 T10721128
KAOO 220553Z AUTO 00000KT 10SM CLR M07/M13 A3043 RMK AO2 SLP327 T10671128 11056 21094 56004
KAOO 220453Z AUTO 00000KT 10SM CLR M09/M12 A3043 RMK AO2 SLP329 T10891122 410281094
KAOO 220353Z AUTO 00000KT 10SM CLR M08/M12 A3043 RMK AO2 SLP332 T10831122
KAOO 220253Z AUTO 22005KT 10SM CLR M08/M12 A3044 RMK AO2 SLP333 T10781122 58002
KAOO 220153Z AUTO 18004KT 10SM CLR M07/M12 A3045 RMK AO2 SLP336 T10721122
KAOO 220053Z AUTO 00000KT 10SM CLR M08/M12 A3045 RMK AO2 SLP338 T10781117
KAOO 212353Z AUTO 27003KT 10SM CLR M06/M12 A3045 RMK AO2 SLP335 T10611122 11028 21061 50009
KAOO 212253Z AUTO 28004KT 10SM CLR M06/M12 A3046 RMK AO2 SLP339 T10561117
KAOO 212153Z AUTO 31009KT 10SM CLR M05/M12 A3044 RMK AO2 SLP333 T10501122
KAOO 212053Z AUTO 31011KT 10SM CLR M03/M13 A3042 RMK AO2 SLP323 T10331128 53012
KAOO 211953Z AUTO 30012KT 10SM CLR M03/M13 A3040 RMK AO2 SLP315 T10281128